sensor_id;sensor_type;location;lat;lon;timestamp;P1;durP1;ratioP1;P2;durP2;ratioP2
78664;SDS011;67981;51.022;-2.870;2023-07-29T00:01:41;8.38;;;2.67;;
78664;SDS011;67981;51.022;-2.870;2023-07-29T00:04:07;6.47;;;2.13;;
78664;SDS011;67981;51.022;-2.870;2023-07-29T00:06:34;7.00;;;2.42;;
78664;SDS011;67981;51.022;-2.870;2023-07-29T00:09:00;4.80;;;2.10;;
78664;SDS011;67981;51.022;-2.870;2023-07-29T00:11:25;5.00;;;2.28;;
78664;SDS011;67981;51.022;-2.870;2023-07-29T00:13:50;4.22;;;2.13;;
78664;SDS011;67981;51.022;-2.870;2023-07-29T00:16:17;6.32;;;2.38;;
78664;SDS011;67981;51.022;-2.870;2023-07-29T00:18:43;7.22;;;3.60;;
78664;SDS011;67981;51.022;-2.870;2023-07-29T00:21:09;5.65;;;2.17;;
78664;SDS011;67981;51.022;-2.870;2023-07-29T00:23:34;5.78;;;2.55;;
78664;SDS011;67981;51.022;-2.870;2023-07-29T00:25:59;6.18;;;2.08;;
78664;SDS011;67981;51.022;-2.870;2023-07-29T00:28:25;5.43;;;2.33;;
78664;SDS011;67981;51.022;-2.870;2023-07-29T00:30:50;4.55;;;2.17;;
78664;SDS011;67981;51.022;-2.870;2023-07-29T00:33:16;5.70;;;2.08;;
78664;SDS011;67981;51.022;-2.870;2023-07-29T00:35:41;6.68;;;2.05;;
78664;SDS011;67981;51.022;-2.870;2023-07-29T00:38:06;5.50;;;2.22;;
78664;SDS011;67981;51.022;-2.870;2023-07-29T00:40:32;7.40;;;2.63;;
78664;SDS011;67981;51.022;-2.870;2023-07-29T00:43:01;4.95;;;2.20;;
78664;SDS011;67981;51.022;-2.870;2023-07-29T00:45:26;6.20;;;2.25;;
78664;SDS011;67981;51.022;-2.870;2023-07-29T00:47:53;6.25;;;2.72;;
78664;SDS011;67981;51.022;-2.870;2023-07-29T00:50:19;6.03;;;2.67;;
78664;SDS011;67981;51.022;-2.870;2023-07-29T00:52:45;5.50;;;2.25;;
78664;SDS011;67981;51.022;-2.870;2023-07-29T00:55:11;3.83;;;2.08;;
78664;SDS011;67981;51.022;-2.870;2023-07-29T00:57:37;5.68;;;2.55;;
78664;SDS011;67981;51.022;-2.870;2023-07-29T01:00:02;5.85;;;2.65;;
78664;SDS011;67981;51.022;-2.870;2023-07-29T01:02:29;6.47;;;2.13;;
78664;SDS011;67981;51.022;-2.870;2023-07-29T01:04:57;5.85;;;2.47;;
78664;SDS011;67981;51.022;-2.870;2023-07-29T01:07:27;4.78;;;2.25;;
78664;SDS011;67981;51.022;-2.870;2023-07-29T01:10:00;6.35;;;2.72;;
78664;SDS011;67981;51.022;-2.870;2023-07-29T01:17:42;5.70;;;2.00;;
78664;SDS011;67981;51.022;-2.870;2023-07-29T01:20:12;4.95;;;2.40;;
78664;SDS011;67981;51.022;-2.870;2023-07-29T01:22:39;6.72;;;2.75;;
78664;SDS011;67981;51.022;-2.870;2023-07-29T01:25:05;4.88;;;2.30;;
78664;SDS011;67981;51.022;-2.870;2023-07-29T01:27:31;5.50;;;2.20;;
78664;SDS011;67981;51.022;-2.870;2023-07-29T01:29:57;5.22;;;2.08;;
78664;SDS011;67981;51.022;-2.870;2023-07-29T01:37:59;5.30;;;2.15;;
78664;SDS011;67981;51.022;-2.870;2023-07-29T01:40:30;3.88;;;2.10;;
78664;SDS011;67981;51.022;-2.870;2023-07-29T01:42:57;5.57;;;2.17;;
78664;SDS011;67981;51.022;-2.870;2023-07-29T01:45:23;3.72;;;2.05;;
78664;SDS011;67981;51.022;-2.870;2023-07-29T01:47:50;6.82;;;2.30;;
78664;SDS011;67981;51.022;-2.870;2023-07-29T01:50:16;4.55;;;1.70;;
78664;SDS011;67981;51.022;-2.870;2023-07-29T01:52:41;8.48;;;2.75;;
78664;SDS011;67981;51.022;-2.870;2023-07-29T01:55:07;5.18;;;2.00;;
78664;SDS011;67981;51.022;-2.870;2023-07-29T01:57:32;19.52;;;4.82;;
78664;SDS011;67981;51.022;-2.870;2023-07-29T01:59:58;6.03;;;2.30;;
78664;SDS011;67981;51.022;-2.870;2023-07-29T02:02:24;6.85;;;2.00;;
78664;SDS011;67981;51.022;-2.870;2023-07-29T02:04:49;4.40;;;1.73;;
78664;SDS011;67981;51.022;-2.870;2023-07-29T02:07:16;5.45;;;2.17;;
78664;SDS011;67981;51.022;-2.870;2023-07-29T02:09:43;5.15;;;2.50;;
78664;SDS011;67981;51.022;-2.870;2023-07-29T02:12:08;3.83;;;2.15;;
78664;SDS011;67981;51.022;-2.870;2023-07-29T02:14:34;6.07;;;2.40;;
78664;SDS011;67981;51.022;-2.870;2023-07-29T02:16:59;6.35;;;1.80;;
78664;SDS011;67981;51.022;-2.870;2023-07-29T02:19:24;7.95;;;3.20;;
78664;SDS011;67981;51.022;-2.870;2023-07-29T02:21:50;6.27;;;1.80;;
78664;SDS011;67981;51.022;-2.870;2023-07-29T02:24:15;6.50;;;2.00;;
78664;SDS011;67981;51.022;-2.870;2023-07-29T02:26:41;7.43;;;2.58;;
78664;SDS011;67981;51.022;-2.870;2023-07-29T02:29:06;6.63;;;3.20;;
78664;SDS011;67981;51.022;-2.870;2023-07-29T02:31:32;4.93;;;1.77;;
78664;SDS011;67981;51.022;-2.870;2023-07-29T02:33:57;4.82;;;2.47;;
78664;SDS011;67981;51.022;-2.870;2023-07-29T02:36:23;3.85;;;2.13;;
78664;SDS011;67981;51.022;-2.870;2023-07-29T02:38:48;2.60;;;1.73;;
78664;SDS011;67981;51.022;-2.870;2023-07-29T02:41:14;6.03;;;1.83;;
78664;SDS011;67981;51.022;-2.870;2023-07-29T02:43:41;8.80;;;2.38;;
78664;SDS011;67981;51.022;-2.870;2023-07-29T02:46:08;4.40;;;1.95;;
78664;SDS011;67981;51.022;-2.870;2023-07-29T02:48:33;5.13;;;2.00;;
78664;SDS011;67981;51.022;-2.870;2023-07-29T02:50:59;5.88;;;2.10;;
78664;SDS011;67981;51.022;-2.870;2023-07-29T02:53:24;7.53;;;2.03;;
78664;SDS011;67981;51.022;-2.870;2023-07-29T02:55:50;5.22;;;2.63;;
78664;SDS011;67981;51.022;-2.870;2023-07-29T02:58:16;7.78;;;2.33;;
78664;SDS011;67981;51.022;-2.870;2023-07-29T03:00:41;5.45;;;2.42;;
78664;SDS011;67981;51.022;-2.870;2023-07-29T03:03:08;4.75;;;2.38;;
78664;SDS011;67981;51.022;-2.870;2023-07-29T03:05:33;5.63;;;2.38;;
78664;SDS011;67981;51.022;-2.870;2023-07-29T03:07:59;5.47;;;2.55;;
78664;SDS011;67981;51.022;-2.870;2023-07-29T03:10:25;7.25;;;2.80;;
78664;SDS011;67981;51.022;-2.870;2023-07-29T03:12:50;6.13;;;2.67;;
78664;SDS011;67981;51.022;-2.870;2023-07-29T03:15:16;10.70;;;2.80;;
78664;SDS011;67981;51.022;-2.870;2023-07-29T03:17:41;5.80;;;2.70;;
78664;SDS011;67981;51.022;-2.870;2023-07-29T03:20:07;9.98;;;2.40;;
78664;SDS011;67981;51.022;-2.870;2023-07-29T03:22:33;6.25;;;2.55;;
78664;SDS011;67981;51.022;-2.870;2023-07-29T03:24:58;8.38;;;2.75;;
78664;SDS011;67981;51.022;-2.870;2023-07-29T03:27:23;7.00;;;3.88;;
78664;SDS011;67981;51.022;-2.870;2023-07-29T03:29:49;7.97;;;3.17;;
78664;SDS011;67981;51.022;-2.870;2023-07-29T03:32:14;6.60;;;3.13;;
78664;SDS011;67981;51.022;-2.870;2023-07-29T03:34:39;7.30;;;3.25;;
78664;SDS011;67981;51.022;-2.870;2023-07-29T03:37:05;5.68;;;2.42;;
78664;SDS011;67981;51.022;-2.870;2023-07-29T03:39:30;6.90;;;3.38;;
78664;SDS011;67981;51.022;-2.870;2023-07-29T03:41:56;8.48;;;2.63;;
78664;SDS011;67981;51.022;-2.870;2023-07-29T03:44:22;5.90;;;2.53;;
78664;SDS011;67981;51.022;-2.870;2023-07-29T03:46:47;7.28;;;2.83;;
78664;SDS011;67981;51.022;-2.870;2023-07-29T03:49:13;7.45;;;3.35;;
78664;SDS011;67981;51.022;-2.870;2023-07-29T03:51:38;8.93;;;3.03;;
78664;SDS011;67981;51.022;-2.870;2023-07-29T03:54:03;7.27;;;2.83;;
78664;SDS011;67981;51.022;-2.870;2023-07-29T03:56:29;5.90;;;2.50;;
78664;SDS011;67981;51.022;-2.870;2023-07-29T03:59:01;5.82;;;2.20;;
78664;SDS011;67981;51.022;-2.870;2023-07-29T04:01:28;7.80;;;2.83;;
78664;SDS011;67981;51.022;-2.870;2023-07-29T04:03:53;7.07;;;2.95;;
78664;SDS011;67981;51.022;-2.870;2023-07-29T04:06:19;5.28;;;2.50;;
78664;SDS011;67981;51.022;-2.870;2023-07-29T04:08:45;5.75;;;2.90;;
78664;SDS011;67981;51.022;-2.870;2023-07-29T04:11:10;6.82;;;2.53;;
78664;SDS011;67981;51.022;-2.870;2023-07-29T04:13:36;6.75;;;2.88;;
78664;SDS011;67981;51.022;-2.870;2023-07-29T04:16:03;7.13;;;2.45;;
78664;SDS011;67981;51.022;-2.870;2023-07-29T04:18:29;7.38;;;3.28;;
78664;SDS011;67981;51.022;-2.870;2023-07-29T04:20:54;4.90;;;2.08;;
78664;SDS011;67981;51.022;-2.870;2023-07-29T04:23:19;7.15;;;2.58;;
78664;SDS011;67981;51.022;-2.870;2023-07-29T04:25:45;8.90;;;2.83;;
78664;SDS011;67981;51.022;-2.870;2023-07-29T04:28:10;6.25;;;2.90;;
78664;SDS011;67981;51.022;-2.870;2023-07-29T04:30:36;7.38;;;2.55;;
78664;SDS011;67981;51.022;-2.870;2023-07-29T04:33:01;7.88;;;2.88;;
78664;SDS011;67981;51.022;-2.870;2023-07-29T04:35:26;6.00;;;2.47;;
78664;SDS011;67981;51.022;-2.870;2023-07-29T04:37:52;6.43;;;3.07;;
78664;SDS011;67981;51.022;-2.870;2023-07-29T04:40:17;5.03;;;2.40;;
78664;SDS011;67981;51.022;-2.870;2023-07-29T04:42:43;6.90;;;2.03;;
78664;SDS011;67981;51.022;-2.870;2023-07-29T04:45:08;8.60;;;2.63;;
78664;SDS011;67981;51.022;-2.870;2023-07-29T04:47:34;4.60;;;2.58;;
78664;SDS011;67981;51.022;-2.870;2023-07-29T04:49:59;5.28;;;2.40;;
78664;SDS011;67981;51.022;-2.870;2023-07-29T04:52:24;4.50;;;2.92;;
78664;SDS011;67981;51.022;-2.870;2023-07-29T04:54:50;3.50;;;2.20;;
78664;SDS011;67981;51.022;-2.870;2023-07-29T04:57:16;4.28;;;2.30;;
78664;SDS011;67981;51.022;-2.870;2023-07-29T04:59:41;4.50;;;2.40;;
78664;SDS011;67981;51.022;-2.870;2023-07-29T05:02:06;5.22;;;2.20;;
78664;SDS011;67981;51.022;-2.870;2023-07-29T05:04:32;5.75;;;2.63;;
78664;SDS011;67981;51.022;-2.870;2023-07-29T05:06:57;5.50;;;2.03;;
78664;SDS011;67981;51.022;-2.870;2023-07-29T05:09:23;6.82;;;2.75;;
78664;SDS011;67981;51.022;-2.870;2023-07-29T05:11:48;6.30;;;2.38;;
78664;SDS011;67981;51.022;-2.870;2023-07-29T05:14:14;7.13;;;2.55;;
78664;SDS011;67981;51.022;-2.870;2023-07-29T05:16:41;6.03;;;2.20;;
78664;SDS011;67981;51.022;-2.870;2023-07-29T05:19:07;5.93;;;2.42;;
78664;SDS011;67981;51.022;-2.870;2023-07-29T05:21:32;6.93;;;2.20;;
78664;SDS011;67981;51.022;-2.870;2023-07-29T05:23:58;5.50;;;2.53;;
78664;SDS011;67981;51.022;-2.870;2023-07-29T05:26:23;6.40;;;2.33;;
78664;SDS011;67981;51.022;-2.870;2023-07-29T05:28:49;6.55;;;2.53;;
78664;SDS011;67981;51.022;-2.870;2023-07-29T05:31:15;4.50;;;2.28;;
78664;SDS011;67981;51.022;-2.870;2023-07-29T05:33:40;4.97;;;2.22;;
78664;SDS011;67981;51.022;-2.870;2023-07-29T05:36:05;4.38;;;2.15;;
78664;SDS011;67981;51.022;-2.870;2023-07-29T05:38:31;3.72;;;2.08;;
78664;SDS011;67981;51.022;-2.870;2023-07-29T05:40:56;3.83;;;2.38;;
78664;SDS011;67981;51.022;-2.870;2023-07-29T05:43:23;7.13;;;2.50;;
78664;SDS011;67981;51.022;-2.870;2023-07-29T05:45:49;5.50;;;2.47;;
78664;SDS011;67981;51.022;-2.870;2023-07-29T05:48:15;9.18;;;2.70;;
78664;SDS011;67981;51.022;-2.870;2023-07-29T05:50:41;5.30;;;2.47;;
78664;SDS011;67981;51.022;-2.870;2023-07-29T05:53:06;5.95;;;2.85;;
78664;SDS011;67981;51.022;-2.870;2023-07-29T05:55:32;6.60;;;2.60;;
78664;SDS011;67981;51.022;-2.870;2023-07-29T05:57:57;9.35;;;3.08;;
78664;SDS011;67981;51.022;-2.870;2023-07-29T06:00:23;6.13;;;2.45;;
78664;SDS011;67981;51.022;-2.870;2023-07-29T06:02:48;6.60;;;2.33;;
78664;SDS011;67981;51.022;-2.870;2023-07-29T06:05:13;5.13;;;2.55;;
78664;SDS011;67981;51.022;-2.870;2023-07-29T06:07:39;5.38;;;2.47;;
78664;SDS011;67981;51.022;-2.870;2023-07-29T06:10:09;8.52;;;2.53;;
78664;SDS011;67981;51.022;-2.870;2023-07-29T06:12:36;6.47;;;2.05;;
78664;SDS011;67981;51.022;-2.870;2023-07-29T06:15:02;4.65;;;1.88;;
78664;SDS011;67981;51.022;-2.870;2023-07-29T06:17:28;5.90;;;2.22;;
78664;SDS011;67981;51.022;-2.870;2023-07-29T06:19:53;6.05;;;2.45;;
78664;SDS011;67981;51.022;-2.870;2023-07-29T06:22:19;5.10;;;2.40;;
78664;SDS011;67981;51.022;-2.870;2023-07-29T06:24:44;8.27;;;2.20;;
78664;SDS011;67981;51.022;-2.870;2023-07-29T06:27:10;4.25;;;2.15;;
78664;SDS011;67981;51.022;-2.870;2023-07-29T06:29:35;3.83;;;1.90;;
78664;SDS011;67981;51.022;-2.870;2023-07-29T06:32:01;6.63;;;2.45;;
78664;SDS011;67981;51.022;-2.870;2023-07-29T06:34:26;4.25;;;2.20;;
78664;SDS011;67981;51.022;-2.870;2023-07-29T06:36:52;5.07;;;2.35;;
78664;SDS011;67981;51.022;-2.870;2023-07-29T06:39:17;4.18;;;2.20;;
78664;SDS011;67981;51.022;-2.870;2023-07-29T06:41:42;8.87;;;3.00;;
78664;SDS011;67981;51.022;-2.870;2023-07-29T06:44:08;8.32;;;3.70;;
78664;SDS011;67981;51.022;-2.870;2023-07-29T06:46:33;11.65;;;2.42;;
78664;SDS011;67981;51.022;-2.870;2023-07-29T06:48:58;4.85;;;1.95;;
78664;SDS011;67981;51.022;-2.870;2023-07-29T06:51:24;7.53;;;1.95;;
78664;SDS011;67981;51.022;-2.870;2023-07-29T06:53:49;4.93;;;2.00;;
78664;SDS011;67981;51.022;-2.870;2023-07-29T06:56:15;5.73;;;1.83;;
78664;SDS011;67981;51.022;-2.870;2023-07-29T06:58:40;8.52;;;2.20;;
78664;SDS011;67981;51.022;-2.870;2023-07-29T07:01:05;7.00;;;2.03;;
78664;SDS011;67981;51.022;-2.870;2023-07-29T07:03:31;5.43;;;2.40;;
78664;SDS011;67981;51.022;-2.870;2023-07-29T07:05:56;3.08;;;1.42;;
78664;SDS011;67981;51.022;-2.870;2023-07-29T07:08:22;6.50;;;1.50;;
78664;SDS011;67981;51.022;-2.870;2023-07-29T07:10:47;4.53;;;2.28;;
78664;SDS011;67981;51.022;-2.870;2023-07-29T07:13:13;3.63;;;1.90;;
78664;SDS011;67981;51.022;-2.870;2023-07-29T07:15:38;6.65;;;1.98;;
78664;SDS011;67981;51.022;-2.870;2023-07-29T07:18:03;6.53;;;2.60;;
78664;SDS011;67981;51.022;-2.870;2023-07-29T07:20:29;10.18;;;2.70;;
78664;SDS011;67981;51.022;-2.870;2023-07-29T07:22:54;4.50;;;2.08;;
78664;SDS011;67981;51.022;-2.870;2023-07-29T07:25:20;8.07;;;2.70;;
78664;SDS011;67981;51.022;-2.870;2023-07-29T07:27:46;10.30;;;2.80;;
78664;SDS011;67981;51.022;-2.870;2023-07-29T07:30:11;8.50;;;2.90;;
78664;SDS011;67981;51.022;-2.870;2023-07-29T07:32:37;7.22;;;2.38;;
78664;SDS011;67981;51.022;-2.870;2023-07-29T07:35:03;6.47;;;2.33;;
78664;SDS011;67981;51.022;-2.870;2023-07-29T07:37:29;7.28;;;2.42;;
78664;SDS011;67981;51.022;-2.870;2023-07-29T07:39:54;8.27;;;2.08;;
78664;SDS011;67981;51.022;-2.870;2023-07-29T07:42:20;8.95;;;2.72;;
78664;SDS011;67981;51.022;-2.870;2023-07-29T07:44:45;4.23;;;2.43;;
78664;SDS011;67981;51.022;-2.870;2023-07-29T07:47:10;5.57;;;2.33;;
78664;SDS011;67981;51.022;-2.870;2023-07-29T07:49:36;3.93;;;1.93;;
78664;SDS011;67981;51.022;-2.870;2023-07-29T07:52:01;4.40;;;2.10;;
78664;SDS011;67981;51.022;-2.870;2023-07-29T07:54:26;4.00;;;2.00;;
78664;SDS011;67981;51.022;-2.870;2023-07-29T07:56:52;6.72;;;2.22;;
78664;SDS011;67981;51.022;-2.870;2023-07-29T07:59:17;7.57;;;1.70;;
78664;SDS011;67981;51.022;-2.870;2023-07-29T08:01:42;7.93;;;2.40;;
78664;SDS011;67981;51.022;-2.870;2023-07-29T08:04:08;7.63;;;2.30;;
78664;SDS011;67981;51.022;-2.870;2023-07-29T08:06:33;6.68;;;1.90;;
78664;SDS011;67981;51.022;-2.870;2023-07-29T08:08:59;9.77;;;2.92;;
78664;SDS011;67981;51.022;-2.870;2023-07-29T08:11:24;3.03;;;1.83;;
78664;SDS011;67981;51.022;-2.870;2023-07-29T08:13:50;8.77;;;2.15;;
78664;SDS011;67981;51.022;-2.870;2023-07-29T08:16:16;13.48;;;1.83;;
78664;SDS011;67981;51.022;-2.870;2023-07-29T08:18:41;5.65;;;1.90;;
78664;SDS011;67981;51.022;-2.870;2023-07-29T08:21:06;7.03;;;2.17;;
78664;SDS011;67981;51.022;-2.870;2023-07-29T08:23:33;4.53;;;2.15;;
78664;SDS011;67981;51.022;-2.870;2023-07-29T08:26:00;5.88;;;1.90;;
78664;SDS011;67981;51.022;-2.870;2023-07-29T08:28:34;6.55;;;1.73;;
78664;SDS011;67981;51.022;-2.870;2023-07-29T08:31:01;3.17;;;1.50;;
78664;SDS011;67981;51.022;-2.870;2023-07-29T08:33:27;5.13;;;1.52;;
78664;SDS011;67981;51.022;-2.870;2023-07-29T08:35:52;5.78;;;1.40;;
78664;SDS011;67981;51.022;-2.870;2023-07-29T08:38:18;5.07;;;1.30;;
78664;SDS011;67981;51.022;-2.870;2023-07-29T08:41:04;4.07;;;1.58;;
78664;SDS011;67981;51.022;-2.870;2023-07-29T08:43:36;7.53;;;1.58;;
78664;SDS011;67981;51.022;-2.870;2023-07-29T08:46:03;6.65;;;1.27;;
78664;SDS011;67981;51.022;-2.870;2023-07-29T08:48:32;5.22;;;1.02;;
78664;SDS011;67981;51.022;-2.870;2023-07-29T08:51:04;4.45;;;1.20;;
78664;SDS011;67981;51.022;-2.870;2023-07-29T08:53:32;4.80;;;1.42;;
78664;SDS011;67981;51.022;-2.870;2023-07-29T08:55:58;4.65;;;1.60;;
78664;SDS011;67981;51.022;-2.870;2023-07-29T08:58:24;5.63;;;1.52;;
78664;SDS011;67981;51.022;-2.870;2023-07-29T09:00:50;5.97;;;1.67;;
78664;SDS011;67981;51.022;-2.870;2023-07-29T09:03:15;4.47;;;1.60;;
78664;SDS011;67981;51.022;-2.870;2023-07-29T09:05:41;4.88;;;2.28;;
78664;SDS011;67981;51.022;-2.870;2023-07-29T09:08:06;5.53;;;1.48;;
78664;SDS011;67981;51.022;-2.870;2023-07-29T09:10:35;4.47;;;1.80;;
78664;SDS011;67981;51.022;-2.870;2023-07-29T09:13:01;6.43;;;1.95;;
78664;SDS011;67981;51.022;-2.870;2023-07-29T09:15:28;5.05;;;1.55;;
78664;SDS011;67981;51.022;-2.870;2023-07-29T09:17:57;4.95;;;1.90;;
78664;SDS011;67981;51.022;-2.870;2023-07-29T09:20:24;4.68;;;1.80;;
78664;SDS011;67981;51.022;-2.870;2023-07-29T09:22:57;3.70;;;1.30;;
78664;SDS011;67981;51.022;-2.870;2023-07-29T09:25:28;4.13;;;1.65;;
78664;SDS011;67981;51.022;-2.870;2023-07-29T09:28:00;5.63;;;2.28;;
78664;SDS011;67981;51.022;-2.870;2023-07-29T09:30:26;5.60;;;1.23;;
78664;SDS011;67981;51.022;-2.870;2023-07-29T09:32:56;2.85;;;1.00;;
78664;SDS011;67981;51.022;-2.870;2023-07-29T09:35:22;3.75;;;1.30;;
78664;SDS011;67981;51.022;-2.870;2023-07-29T09:37:47;4.78;;;1.50;;
78664;SDS011;67981;51.022;-2.870;2023-07-29T09:40:14;5.57;;;1.83;;
78664;SDS011;67981;51.022;-2.870;2023-07-29T09:42:40;4.25;;;1.48;;
78664;SDS011;67981;51.022;-2.870;2023-07-29T09:45:18;6.43;;;1.27;;
78664;SDS011;67981;51.022;-2.870;2023-07-29T09:50:13;3.97;;;1.20;;
78664;SDS011;67981;51.022;-2.870;2023-07-29T09:52:39;4.70;;;1.55;;
78664;SDS011;67981;51.022;-2.870;2023-07-29T09:55:04;4.32;;;1.38;;
78664;SDS011;67981;51.022;-2.870;2023-07-29T09:57:31;6.78;;;1.23;;
78664;SDS011;67981;51.022;-2.870;2023-07-29T09:59:57;6.18;;;1.40;;
78664;SDS011;67981;51.022;-2.870;2023-07-29T10:02:23;4.13;;;1.17;;
78664;SDS011;67981;51.022;-2.870;2023-07-29T10:04:51;4.63;;;1.50;;
78664;SDS011;67981;51.022;-2.870;2023-07-29T10:07:17;4.18;;;1.38;;
78664;SDS011;67981;51.022;-2.870;2023-07-29T10:09:44;3.53;;;1.65;;
78664;SDS011;67981;51.022;-2.870;2023-07-29T10:12:11;4.93;;;1.67;;
78664;SDS011;67981;51.022;-2.870;2023-07-29T10:14:37;3.80;;;1.70;;
78664;SDS011;67981;51.022;-2.870;2023-07-29T10:17:04;4.22;;;1.33;;
78664;SDS011;67981;51.022;-2.870;2023-07-29T10:19:30;6.80;;;2.75;;
78664;SDS011;67981;51.022;-2.870;2023-07-29T10:21:56;4.65;;;1.50;;
78664;SDS011;67981;51.022;-2.870;2023-07-29T10:24:27;3.97;;;1.45;;
78664;SDS011;67981;51.022;-2.870;2023-07-29T10:26:59;9.38;;;1.48;;
78664;SDS011;67981;51.022;-2.870;2023-07-29T10:29:28;4.85;;;1.65;;
78664;SDS011;67981;51.022;-2.870;2023-07-29T10:31:57;3.63;;;1.52;;
78664;SDS011;67981;51.022;-2.870;2023-07-29T10:34:26;4.47;;;1.25;;
78664;SDS011;67981;51.022;-2.870;2023-07-29T10:36:52;5.10;;;2.22;;
78664;SDS011;67981;51.022;-2.870;2023-07-29T10:39:19;12.25;;;2.17;;
78664;SDS011;67981;51.022;-2.870;2023-07-29T10:41:57;4.57;;;1.05;;
78664;SDS011;67981;51.022;-2.870;2023-07-29T10:47:17;3.70;;;1.10;;
78664;SDS011;67981;51.022;-2.870;2023-07-29T10:49:53;7.07;;;1.40;;
78664;SDS011;67981;51.022;-2.870;2023-07-29T10:52:30;3.65;;;1.30;;
78664;SDS011;67981;51.022;-2.870;2023-07-29T10:55:02;9.75;;;1.35;;
78664;SDS011;67981;51.022;-2.870;2023-07-29T10:57:47;3.78;;;1.92;;
78664;SDS011;67981;51.022;-2.870;2023-07-29T11:00:12;3.30;;;1.20;;
78664;SDS011;67981;51.022;-2.870;2023-07-29T11:02:40;5.65;;;1.30;;
78664;SDS011;67981;51.022;-2.870;2023-07-29T11:05:17;6.32;;;1.40;;
78664;SDS011;67981;51.022;-2.870;2023-07-29T11:07:43;6.05;;;2.03;;
78664;SDS011;67981;51.022;-2.870;2023-07-29T11:10:12;5.38;;;1.08;;
78664;SDS011;67981;51.022;-2.870;2023-07-29T11:15:16;2.60;;;1.20;;
78664;SDS011;67981;51.022;-2.870;2023-07-29T11:20:13;2.22;;;0.85;;
78664;SDS011;67981;51.022;-2.870;2023-07-29T11:22:40;4.07;;;1.38;;
78664;SDS011;67981;51.022;-2.870;2023-07-29T11:25:09;2.63;;;0.82;;
78664;SDS011;67981;51.022;-2.870;2023-07-29T11:27:37;3.10;;;1.08;;
78664;SDS011;67981;51.022;-2.870;2023-07-29T11:30:03;4.57;;;0.93;;
78664;SDS011;67981;51.022;-2.870;2023-07-29T11:32:30;6.80;;;1.10;;
78664;SDS011;67981;51.022;-2.870;2023-07-29T11:35:00;3.05;;;1.30;;
78664;SDS011;67981;51.022;-2.870;2023-07-29T11:37:29;4.13;;;1.13;;
78664;SDS011;67981;51.022;-2.870;2023-07-29T11:39:55;4.32;;;1.05;;
78664;SDS011;67981;51.022;-2.870;2023-07-29T11:42:20;4.80;;;1.25;;
78664;SDS011;67981;51.022;-2.870;2023-07-29T11:44:45;5.22;;;1.25;;
78664;SDS011;67981;51.022;-2.870;2023-07-29T11:47:11;4.63;;;1.13;;
78664;SDS011;67981;51.022;-2.870;2023-07-29T11:49:38;4.30;;;1.40;;
78664;SDS011;67981;51.022;-2.870;2023-07-29T11:52:05;5.43;;;1.73;;
78664;SDS011;67981;51.022;-2.870;2023-07-29T11:54:32;6.80;;;1.50;;
78664;SDS011;67981;51.022;-2.870;2023-07-29T11:56:57;3.08;;;0.90;;
78664;SDS011;67981;51.022;-2.870;2023-07-29T11:59:23;4.38;;;1.08;;
78664;SDS011;67981;51.022;-2.870;2023-07-29T12:01:48;6.78;;;1.50;;
78664;SDS011;67981;51.022;-2.870;2023-07-29T12:04:14;6.43;;;1.67;;
78664;SDS011;67981;51.022;-2.870;2023-07-29T12:06:40;4.20;;;1.38;;
78664;SDS011;67981;51.022;-2.870;2023-07-29T12:09:06;5.40;;;1.83;;
78664;SDS011;67981;51.022;-2.870;2023-07-29T12:11:32;5.25;;;0.98;;
78664;SDS011;67981;51.022;-2.870;2023-07-29T12:13:59;4.85;;;1.15;;
78664;SDS011;67981;51.022;-2.870;2023-07-29T12:16:25;3.35;;;1.42;;
78664;SDS011;67981;51.022;-2.870;2023-07-29T12:18:50;3.72;;;1.10;;
78664;SDS011;67981;51.022;-2.870;2023-07-29T12:21:16;5.80;;;1.23;;
78664;SDS011;67981;51.022;-2.870;2023-07-29T12:26:09;3.50;;;0.97;;
78664;SDS011;67981;51.022;-2.870;2023-07-29T12:28:34;7.65;;;1.92;;
78664;SDS011;67981;51.022;-2.870;2023-07-29T12:30:59;9.25;;;2.08;;
78664;SDS011;67981;51.022;-2.870;2023-07-29T12:33:31;4.13;;;1.50;;
78664;SDS011;67981;51.022;-2.870;2023-07-29T12:36:01;5.43;;;1.17;;
78664;SDS011;67981;51.022;-2.870;2023-07-29T12:38:27;6.93;;;1.38;;
78664;SDS011;67981;51.022;-2.870;2023-07-29T12:40:54;6.15;;;1.20;;
78664;SDS011;67981;51.022;-2.870;2023-07-29T12:43:19;6.95;;;1.52;;
78664;SDS011;67981;51.022;-2.870;2023-07-29T12:45:45;6.88;;;2.58;;
78664;SDS011;67981;51.022;-2.870;2023-07-29T12:48:11;5.93;;;1.23;;
78664;SDS011;67981;51.022;-2.870;2023-07-29T12:50:37;5.25;;;1.80;;
78664;SDS011;67981;51.022;-2.870;2023-07-29T12:53:03;3.80;;;1.20;;
78664;SDS011;67981;51.022;-2.870;2023-07-29T12:55:30;4.78;;;1.58;;
78664;SDS011;67981;51.022;-2.870;2023-07-29T12:57:55;4.93;;;1.58;;
78664;SDS011;67981;51.022;-2.870;2023-07-29T13:00:21;2.13;;;1.02;;
78664;SDS011;67981;51.022;-2.870;2023-07-29T13:02:46;9.25;;;1.55;;
78664;SDS011;67981;51.022;-2.870;2023-07-29T13:05:12;4.17;;;1.73;;
78664;SDS011;67981;51.022;-2.870;2023-07-29T13:07:38;6.38;;;1.38;;
78664;SDS011;67981;51.022;-2.870;2023-07-29T13:10:04;6.50;;;1.38;;
78664;SDS011;67981;51.022;-2.870;2023-07-29T13:12:30;3.67;;;1.23;;
78664;SDS011;67981;51.022;-2.870;2023-07-29T13:14:55;3.83;;;1.13;;
78664;SDS011;67981;51.022;-2.870;2023-07-29T13:17:21;4.28;;;1.35;;
78664;SDS011;67981;51.022;-2.870;2023-07-29T13:19:47;5.18;;;1.13;;
78664;SDS011;67981;51.022;-2.870;2023-07-29T13:22:12;4.88;;;1.02;;
78664;SDS011;67981;51.022;-2.870;2023-07-29T13:24:38;6.13;;;1.17;;
78664;SDS011;67981;51.022;-2.870;2023-07-29T13:27:03;6.03;;;1.33;;
78664;SDS011;67981;51.022;-2.870;2023-07-29T13:29:29;2.63;;;0.75;;
78664;SDS011;67981;51.022;-2.870;2023-07-29T13:31:54;3.50;;;1.00;;
78664;SDS011;67981;51.022;-2.870;2023-07-29T13:34:19;3.25;;;0.93;;
78664;SDS011;67981;51.022;-2.870;2023-07-29T13:36:45;3.33;;;1.33;;
78664;SDS011;67981;51.022;-2.870;2023-07-29T13:39:10;4.78;;;1.05;;
78664;SDS011;67981;51.022;-2.870;2023-07-29T13:41:35;4.73;;;1.00;;
78664;SDS011;67981;51.022;-2.870;2023-07-29T13:44:01;3.20;;;0.80;;
78664;SDS011;67981;51.022;-2.870;2023-07-29T13:46:26;3.80;;;0.93;;
78664;SDS011;67981;51.022;-2.870;2023-07-29T13:48:52;3.35;;;1.10;;
78664;SDS011;67981;51.022;-2.870;2023-07-29T13:51:17;1.13;;;0.63;;
78664;SDS011;67981;51.022;-2.870;2023-07-29T13:53:42;2.00;;;0.82;;
78664;SDS011;67981;51.022;-2.870;2023-07-29T13:56:08;3.25;;;0.77;;
78664;SDS011;67981;51.022;-2.870;2023-07-29T13:58:33;2.90;;;0.80;;
78664;SDS011;67981;51.022;-2.870;2023-07-29T14:00:58;4.80;;;1.23;;
78664;SDS011;67981;51.022;-2.870;2023-07-29T14:03:24;3.15;;;1.15;;
78664;SDS011;67981;51.022;-2.870;2023-07-29T14:05:49;3.28;;;0.88;;
78664;SDS011;67981;51.022;-2.870;2023-07-29T14:08:15;5.15;;;1.75;;
78664;SDS011;67981;51.022;-2.870;2023-07-29T14:10:40;2.58;;;0.80;;
78664;SDS011;67981;51.022;-2.870;2023-07-29T14:13:05;2.30;;;1.13;;
78664;SDS011;67981;51.022;-2.870;2023-07-29T14:15:31;1.90;;;0.85;;
78664;SDS011;67981;51.022;-2.870;2023-07-29T14:17:57;3.10;;;1.05;;
78664;SDS011;67981;51.022;-2.870;2023-07-29T14:20:23;3.00;;;1.10;;
78664;SDS011;67981;51.022;-2.870;2023-07-29T14:22:49;6.45;;;0.95;;
78664;SDS011;67981;51.022;-2.870;2023-07-29T14:25:14;1.60;;;0.57;;
78664;SDS011;67981;51.022;-2.870;2023-07-29T14:27:40;3.90;;;0.95;;
78664;SDS011;67981;51.022;-2.870;2023-07-29T14:30:06;3.30;;;1.02;;
78664;SDS011;67981;51.022;-2.870;2023-07-29T14:32:32;3.95;;;1.30;;
78664;SDS011;67981;51.022;-2.870;2023-07-29T14:34:57;3.33;;;1.20;;
78664;SDS011;67981;51.022;-2.870;2023-07-29T14:37:23;2.50;;;1.00;;
78664;SDS011;67981;51.022;-2.870;2023-07-29T14:39:48;2.65;;;0.90;;
78664;SDS011;67981;51.022;-2.870;2023-07-29T14:42:14;2.60;;;0.90;;
78664;SDS011;67981;51.022;-2.870;2023-07-29T14:44:40;4.18;;;1.25;;
78664;SDS011;67981;51.022;-2.870;2023-07-29T14:47:07;3.65;;;1.00;;
78664;SDS011;67981;51.022;-2.870;2023-07-29T14:49:33;1.38;;;0.68;;
78664;SDS011;67981;51.022;-2.870;2023-07-29T14:51:58;5.32;;;0.90;;